createdAt,value
2023-03-02T00:00:16.457Z,53.50
2023-03-02T00:02:46.949Z,54.20
2023-03-02T00:05:16.316Z,53.80
2023-03-02T00:07:45.269Z,53.80
2023-03-02T00:10:14.326Z,53.90
2023-03-02T00:12:43.254Z,53.90
2023-03-02T00:15:12.297Z,53.90
2023-03-02T00:17:41.140Z,54.00
2023-03-02T00:20:12.876Z,54.10
2023-03-02T00:22:43.863Z,54.20
2023-03-02T00:25:14.802Z,54.20
2023-03-02T00:27:43.766Z,54.20
2023-03-02T00:30:17.219Z,54.20
2023-03-02T00:32:46.181Z,54.30
2023-03-02T00:35:16.982Z,54.10
2023-03-02T00:37:45.943Z,54.30
2023-03-02T00:40:15.575Z,54.30
2023-03-02T00:42:44.337Z,54.40
2023-03-02T00:45:13.222Z,54.40
2023-03-02T00:47:42.542Z,54.40
2023-03-02T00:50:12.249Z,54.40
2023-03-02T00:52:42.686Z,54.40
2023-03-02T00:55:11.978Z,54.40
2023-03-02T00:57:41.073Z,54.60
2023-03-02T01:00:11.983Z,54.60
2023-03-02T01:02:44.066Z,54.70
2023-03-02T01:05:16.730Z,54.70
2023-03-02T01:07:47.294Z,54.70
2023-03-02T01:10:17.353Z,54.70
2023-03-02T01:12:46.675Z,54.70
2023-03-02T01:15:15.691Z,54.80
2023-03-02T01:17:44.846Z,54.80
2023-03-02T01:20:14.288Z,54.80
2023-03-02T01:22:45.281Z,54.90
2023-03-02T01:25:15.779Z,55.00
2023-03-02T01:27:44.779Z,55.00
2023-03-02T01:30:14.976Z,55.00
2023-03-02T01:32:43.853Z,55.10
2023-03-02T01:35:13.720Z,55.10
2023-03-02T01:37:43.106Z,55.20
2023-03-02T01:40:15.859Z,55.20
2023-03-02T01:42:53.263Z,55.20
2023-03-02T01:45:53.325Z,55.20
2023-03-02T01:48:33.985Z,55.30
2023-03-02T01:51:04.078Z,55.20
2023-03-02T01:53:35.972Z,55.20
2023-03-02T01:56:08.003Z,55.20
2023-03-02T01:58:38.332Z,55.30
2023-03-02T02:01:15.328Z,55.30
2023-03-02T02:03:47.985Z,55.30
2023-03-02T02:06:22.705Z,55.30
2023-03-02T02:08:53.584Z,55.40
2023-03-02T02:11:23.885Z,55.40
2023-03-02T02:13:57.756Z,55.40
2023-03-02T02:16:27.173Z,55.50
2023-03-02T02:18:56.813Z,55.50
2023-03-02T02:21:27.673Z,55.50
2023-03-02T02:24:04.994Z,55.50
2023-03-02T02:26:40.780Z,55.60
2023-03-02T02:29:14.635Z,55.60
2023-03-02T02:31:48.151Z,55.70
2023-03-02T02:34:22.564Z,55.80
2023-03-02T02:36:57.427Z,55.90
2023-03-02T02:39:32.266Z,56.00
2023-03-02T02:42:07.006Z,56.00
2023-03-02T02:44:36.025Z,56.00
2023-03-02T02:47:07.050Z,55.90
2023-03-02T02:49:39.261Z,55.90
2023-03-02T02:52:08.549Z,56.00
2023-03-02T02:54:38.719Z,56.00
2023-03-02T02:57:12.497Z,56.00
2023-03-02T02:59:46.228Z,56.00
2023-03-02T03:02:20.417Z,56.10
2023-03-02T03:04:49.527Z,56.10
2023-03-02T03:07:21.341Z,56.10
2023-03-02T03:09:58.004Z,56.30
2023-03-02T03:12:30.167Z,56.20
2023-03-02T03:15:00.007Z,56.10
2023-03-02T03:17:29.041Z,56.20
2023-03-02T03:20:06.517Z,56.10
2023-03-02T03:22:39.266Z,56.20
2023-03-02T03:25:15.536Z,56.30
2023-03-02T03:27:48.270Z,56.30
2023-03-02T03:30:18.399Z,56.30
2023-03-02T03:32:48.376Z,56.40
2023-03-02T03:35:18.768Z,56.30
2023-03-02T03:37:48.411Z,56.40
2023-03-02T03:40:18.590Z,56.40
2023-03-02T03:42:50.456Z,56.50
2023-03-02T03:45:20.369Z,56.50
2023-03-02T03:47:49.336Z,56.40
2023-03-02T03:50:18.890Z,56.50
2023-03-02T03:52:48.518Z,56.50
2023-03-02T03:55:22.285Z,56.50
2023-03-02T03:57:53.668Z,56.50
2023-03-02T04:00:24.241Z,56.50
2023-03-02T04:03:01.647Z,56.60
2023-03-02T04:05:32.508Z,56.50
2023-03-02T04:08:03.654Z,56.70
2023-03-02T04:10:33.830Z,56.80
2023-03-02T04:13:05.287Z,56.70
2023-03-02T04:15:35.198Z,56.80
2023-03-02T04:18:04.576Z,56.70
2023-03-02T04:20:35.396Z,56.70
2023-03-02T04:23:04.319Z,56.70
2023-03-02T04:25:33.616Z,56.70
2023-03-02T04:28:17.593Z,56.60
2023-03-02T04:30:47.636Z,56.70
2023-03-02T04:33:16.672Z,56.80
2023-03-02T04:35:45.879Z,56.80
2023-03-02T04:38:15.003Z,56.80
2023-03-02T04:40:46.046Z,56.80
2023-03-02T04:43:16.629Z,56.80
2023-03-02T04:45:45.658Z,56.80
2023-03-02T04:48:14.787Z,56.80
2023-03-02T04:50:43.838Z,56.90
2023-03-02T04:53:13.024Z,56.90
2023-03-02T04:55:42.524Z,56.90
2023-03-02T04:58:11.410Z,56.90
2023-03-02T05:00:42.152Z,56.90
2023-03-02T05:03:11.214Z,57.00
2023-03-02T05:05:40.281Z,56.90
2023-03-02T05:08:09.528Z,56.90
2023-03-02T05:10:38.454Z,56.90
2023-03-02T05:13:07.463Z,56.90
2023-03-02T05:15:38.429Z,56.90
2023-03-02T05:18:11.843Z,56.90
2023-03-02T05:20:41.540Z,57.00
2023-03-02T05:23:12.952Z,57.00
2023-03-02T05:25:41.947Z,57.10
2023-03-02T05:28:10.991Z,57.10
2023-03-02T05:30:40.033Z,57.20
2023-03-02T05:33:10.760Z,57.20
2023-03-02T05:35:39.961Z,57.20
2023-03-02T05:38:09.470Z,57.20
2023-03-02T05:40:42.331Z,57.30
2023-03-02T05:43:16.802Z,57.30
2023-03-02T05:45:46.158Z,57.30
2023-03-02T05:48:17.137Z,57.80
2023-03-02T05:50:46.448Z,57.30
2023-03-02T05:53:15.558Z,56.80
2023-03-02T05:55:44.895Z,57.30
2023-03-02T05:58:16.654Z,57.30
2023-03-02T06:00:46.618Z,57.40
2023-03-02T06:03:21.037Z,57.50
2023-03-02T06:05:51.024Z,57.50
2023-03-02T06:08:21.565Z,57.50
2023-03-02T06:10:50.793Z,57.60
2023-03-02T06:13:20.228Z,57.70
2023-03-02T06:15:49.502Z,57.60
2023-03-02T06:18:20.617Z,57.60
2023-03-02T06:20:50.873Z,57.70
2023-03-02T06:23:19.951Z,57.60
2023-03-02T06:25:49.344Z,57.60
2023-03-02T06:28:20.359Z,57.60
2023-03-02T06:30:49.838Z,57.70
2023-03-02T06:33:21.683Z,57.70
2023-03-02T06:35:51.143Z,57.80
2023-03-02T06:38:20.172Z,57.80
2023-03-02T06:40:49.270Z,57.90
2023-03-02T06:43:18.266Z,57.90
2023-03-02T06:45:47.532Z,57.90
2023-03-02T06:48:17.366Z,57.90
2023-03-02T06:50:48.080Z,57.90
2023-03-02T06:53:20.242Z,57.90
2023-03-02T06:55:49.247Z,58.00
2023-03-02T06:58:19.235Z,58.00
2023-03-02T07:00:48.638Z,58.10
2023-03-02T07:03:18.496Z,58.20
2023-03-02T07:05:50.030Z,58.10
2023-03-02T07:08:18.956Z,58.20
2023-03-02T07:10:47.987Z,58.20
2023-03-02T07:13:16.972Z,58.20
2023-03-02T07:15:46.056Z,58.20
2023-03-02T07:18:14.956Z,58.10
2023-03-02T07:20:43.918Z,58.00
2023-03-02T07:23:14.497Z,58.00
2023-03-02T07:25:44.557Z,58.10
2023-03-02T07:28:13.498Z,58.00
2023-03-02T07:30:43.403Z,58.10
2023-03-02T07:33:12.651Z,58.00
2023-03-02T07:35:41.859Z,58.00
2023-03-02T07:38:13.699Z,58.10
2023-03-02T07:40:43.217Z,58.00
2023-03-02T07:43:12.488Z,57.90
2023-03-02T07:45:42.707Z,57.80
2023-03-02T07:48:12.446Z,57.70
2023-03-02T07:50:42.368Z,57.70
2023-03-02T07:53:12.305Z,57.70
2023-03-02T07:55:43.485Z,58.10
2023-03-02T07:58:12.545Z,58.60
2023-03-02T08:00:42.851Z,58.80
2023-03-02T08:03:12.409Z,58.50
2023-03-02T08:05:41.988Z,58.30
2023-03-02T08:08:11.225Z,57.60
2023-03-02T08:10:40.201Z,57.00
2023-03-02T08:13:12.615Z,55.40
2023-03-02T08:15:43.455Z,54.50
2023-03-02T08:18:12.736Z,53.50
2023-03-02T08:20:42.562Z,52.00
2023-03-02T08:23:12.057Z,51.20
2023-03-02T08:25:43.670Z,50.10
2023-03-02T08:28:14.059Z,49.10
2023-03-02T08:30:43.335Z,48.30
2023-03-02T08:33:12.355Z,47.70
2023-03-02T08:35:41.467Z,47.00
2023-03-02T08:38:10.431Z,46.10
2023-03-02T08:40:39.425Z,45.30
2023-03-02T08:43:10.805Z,44.60
2023-03-02T08:45:41.334Z,44.40
2023-03-02T08:48:10.797Z,43.50
2023-03-02T08:50:39.853Z,43.20
2023-03-02T08:53:10.294Z,43.00
2023-03-02T08:55:39.422Z,42.20
2023-03-02T08:58:10.241Z,41.80
2023-03-02T09:00:40.803Z,41.70
2023-03-02T09:03:09.965Z,41.90
2023-03-02T09:05:39.108Z,42.00
2023-03-02T09:08:08.775Z,42.30
2023-03-02T09:10:38.177Z,42.50
2023-03-02T09:13:08.581Z,43.10
2023-03-02T09:15:37.732Z,43.50
2023-03-02T09:18:08.588Z,43.80
2023-03-02T09:20:37.698Z,44.10
2023-03-02T09:23:06.852Z,44.70
2023-03-02T09:25:35.971Z,44.80
2023-03-02T09:28:05.099Z,44.90
2023-03-02T09:30:34.191Z,45.10
2023-03-02T09:33:03.431Z,45.40
2023-03-02T09:35:34.230Z,45.50
2023-03-02T09:38:03.305Z,45.40
2023-03-02T09:40:36.502Z,45.60
2023-03-02T09:43:19.170Z,45.40
2023-03-02T09:46:06.179Z,45.60
2023-03-02T09:48:42.622Z,45.50
2023-03-02T09:51:32.029Z,45.30
2023-03-02T09:54:10.180Z,45.00
2023-03-02T09:56:43.746Z,44.50
2023-03-02T09:59:22.467Z,44.70
2023-03-02T10:01:55.684Z,44.50
2023-03-02T10:04:28.196Z,44.70
2023-03-02T10:07:03.708Z,44.20
2023-03-02T10:09:32.943Z,43.60
2023-03-02T10:12:21.254Z,43.60
2023-03-02T10:14:57.644Z,43.10
2023-03-02T10:17:51.835Z,43.20
2023-03-02T10:20:25.293Z,42.90
2023-03-02T10:23:00.166Z,42.30
2023-03-02T10:25:38.390Z,41.60
2023-03-02T10:28:16.946Z,41.40
2023-03-02T10:30:50.132Z,41.10
2023-03-02T10:33:22.700Z,40.50
2023-03-02T10:35:54.980Z,39.30
2023-03-02T10:38:26.118Z,38.70
2023-03-02T10:40:59.971Z,37.90
2023-03-02T10:43:33.902Z,37.20
2023-03-02T10:46:05.257Z,36.80
2023-03-02T10:48:40.958Z,36.20
2023-03-02T10:51:23.809Z,34.60
2023-03-02T10:54:04.553Z,35.10
2023-03-02T10:56:34.510Z,33.60
2023-03-02T10:59:14.398Z,34.00
2023-03-02T11:01:43.613Z,33.70
2023-03-02T11:04:15.900Z,33.40
2023-03-02T11:06:45.203Z,33.60
2023-03-02T11:09:15.902Z,34.40
2023-03-02T11:11:52.537Z,34.50
2023-03-02T11:14:23.074Z,35.00
2023-03-02T11:16:53.492Z,35.20
2023-03-02T11:19:32.334Z,35.10
2023-03-02T11:22:11.126Z,34.10
2023-03-02T11:24:46.065Z,33.90
2023-03-02T11:27:22.661Z,33.70
2023-03-02T11:29:55.682Z,33.10
2023-03-02T11:32:32.541Z,32.80
2023-03-02T11:35:06.554Z,32.00
2023-03-02T11:37:41.190Z,31.50
2023-03-02T11:40:26.515Z,31.80
2023-03-02T11:42:59.338Z,31.10
2023-03-02T11:45:30.998Z,30.80
2023-03-02T11:48:14.004Z,30.70
2023-03-02T11:50:52.272Z,30.40
2023-03-02T11:53:24.746Z,30.20
2023-03-02T11:55:55.219Z,30.20
2023-03-02T11:58:27.792Z,30.50
2023-03-02T12:00:57.918Z,30.50
2023-03-02T12:03:40.658Z,30.70
2023-03-02T12:06:28.645Z,30.70
2023-03-02T12:09:12.595Z,30.70
2023-03-02T12:11:47.178Z,30.40
2023-03-02T12:14:37.919Z,30.20
2023-03-02T12:17:23.076Z,30.20
2023-03-02T12:19:54.676Z,29.80
2023-03-02T12:22:29.265Z,29.80
2023-03-02T12:25:05.334Z,29.60
2023-03-02T12:27:39.000Z,29.60
2023-03-02T12:30:28.421Z,29.50
2023-03-02T12:33:18.015Z,29.60
2023-03-02T12:35:48.565Z,29.20
2023-03-02T12:38:30.912Z,29.20
2023-03-02T12:41:41.694Z,28.90
2023-03-02T12:44:31.353Z,28.80
2023-03-02T12:47:03.035Z,28.20
2023-03-02T12:49:47.468Z,27.70
2023-03-02T12:52:24.155Z,27.30
2023-03-02T12:55:01.489Z,27.30
2023-03-02T12:57:31.394Z,26.90
2023-03-02T13:00:03.979Z,26.90
2023-03-02T13:02:35.324Z,26.50
2023-03-02T13:05:07.063Z,26.70
2023-03-02T13:07:39.213Z,27.00
2023-03-02T13:10:18.587Z,27.00
2023-03-02T13:12:47.836Z,27.80
2023-03-02T13:15:19.590Z,27.40
2023-03-02T13:17:55.281Z,27.90
2023-03-02T13:20:27.380Z,28.20
2023-03-02T13:22:56.751Z,28.60
2023-03-02T13:25:28.442Z,28.90
2023-03-02T13:28:00.663Z,29.30
2023-03-02T13:30:33.253Z,29.50
2023-03-02T13:33:04.639Z,30.40
2023-03-02T13:35:37.171Z,30.40
2023-03-02T13:38:15.147Z,30.60
2023-03-02T13:40:47.800Z,31.20
2023-03-02T13:43:41.456Z,31.50
2023-03-02T13:46:28.744Z,31.80
2023-03-02T13:49:10.602Z,32.00
2023-03-02T13:51:43.089Z,32.50
2023-03-02T13:54:20.540Z,32.70
2023-03-02T13:56:51.432Z,33.00
2023-03-02T13:59:22.324Z,33.10
2023-03-02T14:01:52.695Z,33.40
2023-03-02T14:04:23.837Z,33.70
2023-03-02T14:06:54.316Z,34.10
2023-03-02T14:09:23.581Z,34.20
2023-03-02T14:11:55.952Z,34.30
2023-03-02T14:14:27.211Z,34.70
2023-03-02T14:16:57.831Z,35.00
2023-03-02T14:19:26.677Z,34.90
2023-03-02T14:21:56.030Z,35.10
2023-03-02T14:24:25.140Z,35.40
2023-03-02T14:26:54.219Z,35.70
2023-03-02T14:29:26.204Z,35.60
2023-03-02T14:31:57.970Z,35.90
2023-03-02T14:34:27.490Z,36.00
2023-03-02T14:36:58.910Z,36.00
2023-03-02T14:39:33.817Z,36.40
2023-03-02T14:42:03.095Z,36.40
2023-03-02T14:44:32.493Z,36.50
2023-03-02T14:47:03.036Z,36.60
2023-03-02T14:49:32.150Z,36.60
2023-03-02T14:52:05.241Z,36.70
2023-03-02T14:54:40.239Z,36.90
2023-03-02T14:57:17.627Z,37.00
2023-03-02T14:59:46.741Z,37.20
2023-03-02T15:02:25.273Z,37.10
2023-03-02T15:04:57.265Z,37.30
2023-03-02T15:07:28.396Z,37.20
2023-03-02T15:09:58.174Z,37.40
2023-03-02T15:12:27.326Z,38.20
2023-03-02T15:14:56.453Z,37.70
2023-03-02T15:17:28.302Z,37.70
2023-03-02T15:19:57.444Z,37.90
2023-03-02T15:22:26.756Z,38.10
2023-03-02T15:24:56.062Z,38.20
2023-03-02T15:27:25.116Z,38.60
2023-03-02T15:29:56.698Z,38.60
2023-03-02T15:32:27.473Z,38.60
2023-03-02T15:34:56.538Z,38.70
2023-03-02T15:37:25.500Z,38.90
2023-03-02T15:39:55.756Z,39.00
2023-03-02T15:42:25.188Z,39.20
2023-03-02T15:44:54.217Z,39.30
2023-03-02T15:47:23.625Z,39.50
2023-03-02T15:49:54.162Z,39.60
2023-03-02T15:52:23.446Z,39.80
2023-03-02T15:54:52.816Z,39.80
2023-03-02T15:57:21.867Z,40.00
2023-03-02T15:59:51.227Z,40.00
2023-03-02T16:02:20.243Z,40.20
2023-03-02T16:04:51.366Z,40.30
2023-03-02T16:07:22.003Z,40.70
2023-03-02T16:09:52.199Z,40.70
2023-03-02T16:12:23.502Z,40.80
2023-03-02T16:14:52.963Z,40.90
2023-03-02T16:17:23.085Z,41.00
2023-03-02T16:19:52.242Z,41.10
2023-03-02T16:22:22.686Z,41.10
2023-03-02T16:24:51.673Z,41.20
2023-03-02T16:27:20.805Z,41.30
2023-03-02T16:29:49.909Z,41.40
2023-03-02T16:32:19.819Z,41.50
2023-03-02T16:34:49.152Z,41.60
2023-03-02T16:37:18.379Z,41.70
2023-03-02T16:39:48.939Z,41.70
2023-03-02T16:42:18.552Z,41.90
2023-03-02T16:44:50.276Z,42.00
2023-03-02T16:47:19.311Z,42.00
2023-03-02T16:49:48.296Z,42.10
2023-03-02T16:52:18.267Z,42.20
2023-03-02T16:54:49.705Z,42.40
2023-03-02T16:57:18.973Z,42.50
2023-03-02T16:59:48.233Z,42.40
2023-03-02T17:02:17.529Z,42.40
2023-03-02T17:04:46.494Z,42.60
2023-03-02T17:07:15.560Z,43.10
2023-03-02T17:09:44.751Z,42.90
2023-03-02T17:12:15.987Z,43.00
2023-03-02T17:14:45.266Z,42.90
2023-03-02T17:17:14.628Z,42.90
2023-03-02T17:19:44.131Z,43.20
2023-03-02T17:22:13.761Z,43.20
2023-03-02T17:24:42.862Z,43.40
2023-03-02T17:27:24.256Z,43.30
2023-03-02T17:29:56.247Z,43.40
2023-03-02T17:32:26.134Z,43.60
2023-03-02T17:34:55.803Z,43.40
2023-03-02T17:37:26.103Z,43.60
2023-03-02T17:39:57.125Z,44.30
2023-03-02T17:42:29.690Z,43.80
2023-03-02T17:45:09.439Z,43.90
2023-03-02T17:47:38.862Z,44.10
2023-03-02T17:50:09.109Z,44.00
2023-03-02T17:52:38.433Z,44.10
2023-03-02T17:55:08.727Z,44.20
2023-03-02T17:57:38.282Z,44.30
2023-03-02T18:00:12.245Z,44.40
2023-03-02T18:02:44.454Z,44.50
2023-03-02T18:05:14.570Z,44.40
2023-03-02T18:07:43.946Z,44.40
2023-03-02T18:10:15.683Z,44.40
2023-03-02T18:12:44.735Z,44.50
2023-03-02T18:15:16.565Z,44.90
2023-03-02T18:17:46.137Z,45.00
2023-03-02T18:20:15.628Z,44.80
2023-03-02T18:22:44.858Z,44.80
2023-03-02T18:25:15.697Z,45.00
2023-03-02T18:27:45.137Z,44.80
2023-03-02T18:30:16.875Z,44.70
2023-03-02T18:32:46.079Z,45.00
2023-03-02T18:35:16.804Z,45.00
2023-03-02T18:37:46.180Z,45.00
2023-03-02T18:40:16.563Z,45.10
2023-03-02T18:42:45.840Z,45.10
2023-03-02T18:45:23.273Z,45.20
2023-03-02T18:47:53.243Z,45.20
2023-03-02T18:50:23.265Z,45.20
2023-03-02T18:52:53.918Z,45.30
2023-03-02T18:55:25.863Z,45.30
2023-03-02T18:57:55.773Z,45.50
2023-03-02T19:00:29.125Z,45.50
2023-03-02T19:02:59.525Z,45.60
2023-03-02T19:05:29.735Z,46.20
2023-03-02T19:08:00.312Z,45.60
2023-03-02T19:10:29.365Z,45.80
2023-03-02T19:12:58.377Z,46.00
2023-03-02T19:15:30.287Z,46.00
2023-03-02T19:17:59.762Z,46.20
2023-03-02T19:20:29.107Z,46.20
2023-03-02T19:22:58.081Z,46.20
2023-03-02T19:25:27.542Z,46.30
2023-03-02T19:27:56.785Z,46.40
2023-03-02T19:30:28.927Z,46.40
2023-03-02T19:32:58.157Z,46.50
2023-03-02T19:35:28.820Z,46.50
2023-03-02T19:37:57.975Z,46.50
2023-03-02T19:40:30.164Z,46.60
2023-03-02T19:42:59.197Z,46.70
2023-03-02T19:45:32.292Z,46.60
2023-03-02T19:48:02.687Z,46.70
2023-03-02T19:50:32.017Z,46.80
2023-03-02T19:53:01.385Z,46.70
2023-03-02T19:55:30.626Z,46.80
2023-03-02T19:58:02.102Z,46.90
2023-03-02T20:00:36.481Z,46.90
2023-03-02T20:03:08.599Z,47.00
2023-03-02T20:05:38.278Z,47.20
2023-03-02T20:08:08.296Z,47.20
2023-03-02T20:10:40.970Z,47.30
2023-03-02T20:13:10.886Z,47.50
2023-03-02T20:15:44.499Z,47.30
2023-03-02T20:18:16.410Z,47.50
2023-03-02T20:20:47.141Z,48.00
2023-03-02T20:23:17.563Z,47.40
2023-03-02T20:25:48.446Z,47.50
2023-03-02T20:28:20.764Z,47.50
2023-03-02T20:30:54.162Z,47.60
2023-03-02T20:33:26.711Z,47.40
2023-03-02T20:35:56.655Z,47.40
2023-03-02T20:38:29.807Z,47.10
2023-03-02T20:40:59.702Z,47.20
2023-03-02T20:43:29.923Z,47.10
2023-03-02T20:46:01.248Z,47.00
2023-03-02T20:48:31.144Z,47.20
2023-03-02T20:51:00.278Z,47.10
2023-03-02T20:53:30.467Z,47.30
2023-03-02T20:56:00.401Z,47.30
2023-03-02T20:58:29.992Z,47.10
2023-03-02T21:01:01.138Z,47.20
2023-03-02T21:03:30.847Z,47.40
2023-03-02T21:06:00.236Z,47.60
2023-03-02T21:08:29.758Z,47.60
2023-03-02T21:10:59.322Z,47.30
2023-03-02T21:13:28.841Z,47.10
2023-03-02T21:15:59.264Z,47.30
2023-03-02T21:18:30.124Z,47.60
2023-03-02T21:20:59.345Z,47.70
2023-03-02T21:23:29.500Z,47.80
2023-03-02T21:25:58.994Z,47.80
2023-03-02T21:28:28.467Z,47.70
2023-03-02T21:30:57.608Z,47.90
2023-03-02T21:33:27.496Z,47.90
2023-03-02T21:35:58.245Z,47.80
2023-03-02T21:38:27.776Z,48.00
2023-03-02T21:40:58.078Z,48.00
2023-03-02T21:43:27.353Z,47.90
2023-03-02T21:45:56.314Z,47.90
2023-03-02T21:48:25.899Z,48.00
2023-03-02T21:50:55.159Z,47.90
2023-03-02T21:53:25.653Z,48.00
2023-03-02T21:55:55.058Z,48.00
2023-03-02T21:58:24.865Z,48.00
2023-03-02T22:00:54.192Z,48.10
2023-03-02T22:03:23.504Z,48.30
2023-03-02T22:05:52.641Z,48.30
2023-03-02T22:08:22.617Z,48.40
2023-03-02T22:10:53.901Z,48.60
2023-03-02T22:13:24.896Z,48.80
2023-03-02T22:16:04.001Z,48.90
2023-03-02T22:18:33.334Z,49.00
2023-03-02T22:21:03.102Z,48.80
2023-03-02T22:23:32.906Z,48.80
2023-03-02T22:26:16.436Z,48.70
2023-03-02T22:28:45.721Z,48.80
2023-03-02T22:31:20.698Z,48.60
2023-03-02T22:33:50.838Z,48.80
2023-03-02T22:36:23.388Z,48.80
2023-03-02T22:38:52.692Z,49.00
2023-03-02T22:41:23.184Z,49.00
2023-03-02T22:43:53.003Z,49.10
2023-03-02T22:46:22.774Z,49.10
2023-03-02T22:48:53.699Z,49.20
2023-03-02T22:51:24.999Z,49.20
2023-03-02T22:53:55.723Z,49.20
2023-03-02T22:56:30.091Z,49.40
2023-03-02T22:59:03.977Z,49.50
2023-03-02T23:01:40.325Z,49.50
2023-03-02T23:04:19.947Z,50.20
2023-03-02T23:06:52.426Z,49.60
2023-03-02T23:09:23.841Z,49.50
2023-03-02T23:11:56.068Z,49.40
2023-03-02T23:14:27.750Z,49.40
2023-03-02T23:17:00.200Z,49.40
2023-03-02T23:19:30.885Z,49.40
2023-03-02T23:22:00.010Z,49.30
2023-03-02T23:24:28.999Z,49.40
2023-03-02T23:26:59.544Z,49.40
2023-03-02T23:29:28.687Z,49.60
2023-03-02T23:31:58.120Z,49.70
2023-03-02T23:34:31.020Z,49.70
2023-03-02T23:37:00.458Z,49.80
2023-03-02T23:39:29.400Z,49.80
2023-03-02T23:42:00.153Z,50.00
2023-03-02T23:44:29.266Z,50.00
2023-03-02T23:46:58.054Z,50.00
2023-03-02T23:49:27.144Z,50.10
2023-03-02T23:51:55.999Z,50.50
2023-03-02T23:54:24.996Z,50.00
2023-03-02T23:56:53.889Z,50.20
2023-03-02T23:59:24.333Z,50.40
